TAX YMMB-YMMB
Flight info
| Callsign | TAX |
|---|---|
| Flight time | N/A |
| Altitude | 4000 |
| Route | YMMB DCT MMBNM DCT MMBNF DCT MICHM DCT LAXIL DCT EN2EC DCT MAUBO DCT MMBNI DCT ROCEL DCT EGEKA DCT SANEM IEN08 DCT SHEED DCT YMEN/26 DCT YMMB |
| Aircraft | PC12/L-V/N |
Departure
| Time | 2026-05-07 12:12 |
|---|---|
| Airport | Melbourne Moorabbin Airport (YMMB) |
Arrival
| Time | N/A |
|---|---|
| Airport | Melbourne Moorabbin Airport (YMMB) |
| Time | Latitude | Longitude | Altitude | Speed | Heading |
|---|---|---|---|---|---|
| 2026-05-07 12:10 | -37.98008 | 145.10571 | 54 ft | 0 kts | 322° |
| 2026-05-07 12:11 | -37.97978 | 145.10540 | 56 ft | 12 kts | 320° |
| 2026-05-07 12:12 | -37.97864 | 145.10428 | 63 ft | 42 kts | 322° |
| 2026-05-07 12:12 | -37.97466 | 145.10032 | 124 ft | 95 kts | 320° |
| 2026-05-07 12:12 | -37.96838 | 145.09492 | 432 ft | 118 kts | 323° |
| 2026-05-07 12:12 | -37.95976 | 145.09207 | 827 ft | 153 kts | 0° |
| 2026-05-07 12:13 | -37.94867 | 145.09658 | 1297 ft | 176 kts | 11° |
| 2026-05-07 12:13 | -37.93709 | 145.10159 | 2132 ft | 178 kts | 10° |
| 2026-05-07 12:13 | -37.93095 | 145.10445 | 2577 ft | 179 kts | 11° |
| 2026-05-07 12:14 | -37.92853 | 145.10561 | 2751 ft | 180 kts | 11° |
| 2026-05-07 12:14 | -37.91675 | 145.11148 | 3592 ft | 183 kts | 13° |
| 2026-05-07 12:15 | -37.90502 | 145.11775 | 4432 ft | 185 kts | 15° |
| 2026-05-07 12:15 | -37.89314 | 145.12410 | 5266 ft | 185 kts | 12° |
| 2026-05-07 12:15 | -37.87959 | 145.12998 | 5504 ft | 225 kts | 15° |
| 2026-05-07 12:15 | -37.86462 | 145.13489 | 6126 ft | 216 kts | 3° |
| 2026-05-07 12:16 | -37.84929 | 145.13461 | 6548 ft | 225 kts | 339° |
| 2026-05-07 12:16 | -37.83486 | 145.12579 | 6551 ft | 233 kts | 315° |
| 2026-05-07 12:16 | -37.82081 | 145.11361 | 6147 ft | 257 kts | 320° |
| 2026-05-07 12:16 | -37.80681 | 145.10265 | 6485 ft | 232 kts | 321° |
| 2026-05-07 12:17 | -37.79277 | 145.09257 | 6506 ft | 227 kts | 321° |
| 2026-05-07 12:17 | -37.79021 | 145.07723 | 6321 ft | 167 kts | 244° |
| 2026-05-07 12:17 | -37.79353 | 145.06421 | 7169 ft | 172 kts | 252° |
| 2026-05-07 12:17 | -37.79310 | 145.04694 | 7141 ft | 201 kts | 269° |
| 2026-05-07 12:18 | -37.79171 | 145.02839 | 6916 ft | 221 kts | 269° |
| 2026-05-07 12:18 | -37.79015 | 145.00952 | 7203 ft | 214 kts | 270° |
| 2026-05-07 12:18 | -37.78786 | 144.98987 | 6713 ft | 227 kts | 272° |
| 2026-05-07 12:18 | -37.78466 | 144.97138 | 5991 ft | 213 kts | 278° |
| 2026-05-07 12:19 | -37.78091 | 144.95415 | 5995 ft | 190 kts | 276° |
| 2026-05-07 12:19 | -37.77641 | 144.93877 | 6270 ft | 189 kts | 286° |
| 2026-05-07 12:19 | -37.76989 | 144.92380 | 6082 ft | 212 kts | 307° |
| 2026-05-07 12:19 | -37.75933 | 144.91061 | 5484 ft | 213 kts | 295° |
| 2026-05-07 12:20 | -37.75053 | 144.89728 | 4626 ft | 196 kts | 308° |
| 2026-05-07 12:20 | -37.74252 | 144.88467 | 3834 ft | 175 kts | 286° |
| 2026-05-07 12:20 | -37.73763 | 144.87160 | 3356 ft | 158 kts | 284° |
| 2026-05-07 12:20 | -37.73248 | 144.85915 | 2340 ft | 163 kts | 297° |
| 2026-05-07 12:21 | -37.72438 | 144.85134 | 1982 ft | 143 kts | 327° |
| 2026-05-07 12:21 | -37.71533 | 144.84755 | 1598 ft | 120 kts | 340° |
| 2026-05-07 12:21 | -37.70794 | 144.84595 | 1284 ft | 100 kts | 342° |
| 2026-05-07 12:21 | -37.70100 | 144.84430 | 843 ft | 103 kts | 340° |
| 2026-05-07 12:22 | -37.69406 | 144.84260 | 559 ft | 105 kts | 345° |
| 2026-05-07 12:22 | -37.68722 | 144.84135 | 394 ft | 92 kts | 344° |
| 2026-05-07 12:22 | -37.68183 | 144.84014 | 347 ft | 66 kts | 342° |
| 2026-05-07 12:22 | -37.67794 | 144.83968 | 358 ft | 58 kts | 12° |